Time;durP1;ratioP1;P1;durP2;ratioP2;P2;SDS_P1;SDS_P2;PMS_P1;PMS_P2;Temp;Humidity;BMP_temperature;BMP_pressure;BME280_temperature;BME280_humidity;BME280_pressure;Samples;Min_cycle;Max_cycle;Signal;HPM_P1;HPM_P2
2022/04/07 00:01:58;;;;;;;8.25;2.67;;;;;;;9.86;63.61;98746.19;4935463;29;20031;-73
2022/04/07 00:04:24;;;;;;;4.80;2.20;;;;;;;9.85;64.42;98733.91;4935922;29;20074;-73
2022/04/07 00:06:49;;;;;;;6.95;2.70;;;;;;;9.86;63.90;98738.31;4936080;29;20076;-74
2022/04/07 00:09:14;;;;;;;7.68;2.30;;;;;;;9.76;64.11;98732.44;4934219;29;20031;-73
2022/04/07 00:11:40;;;;;;;8.27;2.97;;;;;;;9.76;64.73;98721.06;4934433;29;20144;-73
2022/04/07 00:14:05;;;;;;;5.60;2.15;;;;;;;9.76;64.29;98718.41;4935811;29;20435;-74
2022/04/07 00:16:31;;;;;;;5.90;2.03;;;;;;;9.71;64.93;98723.81;4934374;29;20051;-74
2022/04/07 00:18:57;;;;;;;5.28;2.33;;;;;;;9.65;64.74;98714.34;4935367;29;20118;-73
2022/04/07 00:21:35;;;;;;;5.38;2.25;;;;;;;9.64;65.51;98712.63;4934760;29;20047;-74
2022/04/07 00:24:01;;;;;;;5.57;2.22;;;;;;;9.60;65.53;98708.38;4933356;29;20031;-73
2022/04/07 00:26:27;;;;;;;5.47;1.95;;;;;;;9.58;65.98;98704.06;4935480;29;20032;-74
2022/04/07 00:28:53;;;;;;;5.93;2.10;;;;;;;9.60;65.18;98710.16;4939155;29;20036;-74
2022/04/07 00:31:18;;;;;;;5.78;2.40;;;;;;;9.60;65.36;98705.72;4934026;29;20039;-74
2022/04/07 00:33:43;;;;;;;5.93;2.53;;;;;;;9.58;65.56;98706.69;4934877;29;20539;-73
2022/04/07 00:36:09;;;;;;;6.55;3.25;;;;;;;9.53;65.32;98698.91;4933781;29;20046;-73
2022/04/07 00:38:34;;;;;;;6.65;2.92;;;;;;;9.45;66.38;98706.19;4935340;29;20043;-73
2022/04/07 00:40:59;;;;;;;6.38;2.35;;;;;;;9.41;66.35;98699.31;4930273;29;20039;-73
2022/04/07 00:43:33;;;;;;;4.45;2.10;;;;;;;9.37;66.32;98702.94;4934068;29;20047;-73
2022/04/07 00:45:59;;;;;;;6.45;2.00;;;;;;;9.32;66.89;98699.59;4930915;29;20507;-74
2022/04/07 00:48:26;;;;;;;5.47;1.92;;;;;;;9.25;66.94;98698.03;4931408;29;20036;-73
2022/04/07 00:50:53;;;;;;;5.95;2.30;;;;;;;9.21;66.96;98689.38;4934729;29;20048;-73
2022/04/07 00:53:19;;;;;;;5.00;2.42;;;;;;;9.17;67.48;98686.00;4931870;29;20144;-74
2022/04/07 00:55:45;;;;;;;6.60;2.17;;;;;;;9.18;67.38;98687.72;4933794;29;20036;-74
2022/04/07 00:58:10;;;;;;;4.68;2.00;;;;;;;9.18;67.66;98676.31;4934335;29;20418;-73
2022/04/07 01:00:36;;;;;;;5.07;2.17;;;;;;;9.18;68.02;98679.81;4933960;29;20027;-74
2022/04/07 01:03:01;;;;;;;6.20;2.55;;;;;;;9.18;68.32;98679.81;4934691;29;20459;-73
2022/04/07 01:05:26;;;;;;;3.90;2.00;;;;;;;9.20;67.89;98664.84;4934798;29;20521;-73
2022/04/07 01:07:53;;;;;;;5.28;2.30;;;;;;;9.25;67.95;98663.81;4933597;29;20094;-73
2022/04/07 01:10:20;;;;;;;5.65;2.40;;;;;;;9.25;67.47;98654.19;4934737;29;20051;-73
2022/04/07 01:12:45;;;;;;;3.30;1.80;;;;;;;9.21;68.18;98648.13;4934336;29;20050;-74
2022/04/07 01:15:11;;;;;;;4.95;2.13;;;;;;;9.17;68.54;98651.78;4934862;29;20035;-74
2022/04/07 01:17:38;;;;;;;5.45;2.22;;;;;;;9.17;68.19;98643.88;4932083;29;20043;-74
2022/04/07 01:20:05;;;;;;;4.93;2.10;;;;;;;9.14;68.50;98636.09;4932232;29;20050;-73
2022/04/07 01:22:34;;;;;;;4.32;2.08;;;;;;;9.09;68.49;98639.75;4933176;29;20502;-73
2022/04/07 01:24:59;;;;;;;3.70;1.85;;;;;;;9.09;68.51;98635.38;4934570;29;20038;-73
2022/04/07 01:27:24;;;;;;;5.38;2.47;;;;;;;9.10;68.96;98634.44;4933433;29;20494;-73
2022/04/07 01:29:52;;;;;;;5.85;2.53;;;;;;;9.07;68.91;98645.06;4933478;29;20070;-74
2022/04/07 01:32:34;;;;;;;5.38;2.28;;;;;;;9.04;68.97;98634.63;4934285;29;20039;-73
2022/04/07 01:35:00;;;;;;;4.95;2.42;;;;;;;9.04;69.02;98634.63;4931704;29;20038;-74
2022/04/07 01:37:25;;;;;;;7.75;1.90;;;;;;;9.02;69.39;98632.97;4929517;29;20032;-74
2022/04/07 01:39:52;;;;;;;7.22;2.47;;;;;;;9.00;68.99;98640.88;4934285;29;20105;-74
2022/04/07 01:42:17;;;;;;;5.05;2.28;;;;;;;8.99;69.76;98633.91;4934015;29;20115;-74
2022/04/07 01:44:47;;;;;;;6.10;2.13;;;;;;;8.98;69.31;98629.53;4930429;29;20114;-74
2022/04/07 01:47:14;;;;;;;4.15;2.13;;;;;;;8.99;69.87;98628.66;4930330;29;20130;-74
2022/04/07 01:49:44;;;;;;;4.43;2.22;;;;;;;8.98;69.46;98622.50;4931947;29;20066;-73
2022/04/07 01:52:12;;;;;;;5.30;2.20;;;;;;;8.96;70.16;98613.81;4933690;29;20411;-74
2022/04/07 01:54:38;;;;;;;4.65;2.25;;;;;;;8.96;70.04;98615.56;4932968;29;20044;-74
2022/04/07 01:57:04;;;;;;;7.72;2.33;;;;;;;8.88;70.55;98609.69;4931020;29;20094;-73
2022/04/07 01:59:30;;;;;;;4.55;1.88;;;;;;;8.92;70.66;98606.06;4933822;29;20507;-73
2022/04/07 02:01:55;;;;;;;4.13;2.00;;;;;;;8.97;69.83;98604.16;4933714;29;20507;-73
2022/04/07 02:04:21;;;;;;;4.50;1.90;;;;;;;8.96;70.38;98603.28;4933850;29;20054;-73
2022/04/07 02:06:46;;;;;;;6.60;1.92;;;;;;;8.91;70.45;98592.06;4934132;29;20039;-74
2022/04/07 02:09:11;;;;;;;3.70;1.92;;;;;;;8.90;70.04;98602.59;4931668;29;20694;-74
2022/04/07 02:11:37;;;;;;;6.03;2.13;;;;;;;8.87;70.46;98600.94;4932315;29;20055;-74
2022/04/07 02:14:02;;;;;;;7.15;2.60;;;;;;;8.77;70.82;98602.97;4933870;29;20035;-74
2022/04/07 02:16:30;;;;;;;4.55;2.10;;;;;;;8.78;70.45;98601.22;4931818;29;20080;-74
2022/04/07 02:18:55;;;;;;;5.00;2.08;;;;;;;8.73;71.18;98597.88;4932537;29;20031;-74
2022/04/07 02:21:21;;;;;;;4.80;2.10;;;;;;;8.74;70.75;98603.06;4929197;29;20585;-74
2022/04/07 02:23:46;;;;;;;5.40;2.08;;;;;;;8.67;71.72;98604.16;4933874;29;20027;-73
2022/04/07 02:26:13;;;;;;;4.53;2.15;;;;;;;8.76;71.68;98593.38;4933867;29;20390;-73
2022/04/07 02:28:39;;;;;;;5.43;2.10;;;;;;;8.79;71.40;98589.78;4932225;29;20090;-73
2022/04/07 02:31:05;;;;;;;7.82;2.20;;;;;;;8.82;71.19;98586.19;4953300;23;20043;-73
2022/04/07 02:33:31;;;;;;;4.82;2.30;;;;;;;8.82;70.98;98583.56;4932340;29;20035;-74
2022/04/07 02:35:56;;;;;;;4.75;2.05;;;;;;;8.80;71.28;98580.13;4933536;29;20583;-74
2022/04/07 02:38:21;;;;;;;5.22;2.00;;;;;;;8.77;71.62;98581.91;4933544;29;20044;-74
2022/04/07 02:40:47;;;;;;;4.80;2.20;;;;;;;8.71;71.57;98579.47;4932748;29;20038;-74
2022/04/07 02:43:12;;;;;;;4.03;2.17;;;;;;;8.65;72.33;98584.94;4929302;29;20035;-73
2022/04/07 02:45:37;;;;;;;5.43;2.10;;;;;;;8.61;72.02;98580.66;4929854;29;20398;-74
2022/04/07 02:48:03;;;;;;;5.68;2.22;;;;;;;8.59;72.57;98571.94;4932314;29;20051;-73
2022/04/07 02:50:28;;;;;;;6.72;2.15;;;;;;;8.59;72.47;98576.34;4933416;29;20067;-73
2022/04/07 02:52:54;;;;;;;4.43;1.90;;;;;;;8.53;72.84;98578.25;4932955;29;20028;-73
2022/04/07 02:55:19;;;;;;;4.47;2.00;;;;;;;8.51;73.20;98573.94;4932385;29;20442;-73
2022/04/07 02:57:44;;;;;;;5.55;2.05;;;;;;;8.49;72.67;98575.78;4928143;29;20115;-74
2022/04/07 03:00:10;;;;;;;5.60;1.92;;;;;;;8.48;73.17;98566.16;4929597;29;20024;-73
2022/04/07 03:02:35;;;;;;;4.03;1.92;;;;;;;8.44;73.58;98569.78;4929516;29;20039;-74
2022/04/07 03:05:01;;;;;;;4.28;2.22;;;;;;;8.43;74.11;98558.38;4935377;29;20120;-73
2022/04/07 03:07:26;;;;;;;7.45;2.50;;;;;;;8.44;74.14;98546.13;4934464;29;20048;-73
2022/04/07 03:09:51;;;;;;;5.25;2.33;;;;;;;8.45;74.39;98553.09;4933540;29;20094;-73
2022/04/07 03:12:17;;;;;;;5.47;2.15;;;;;;;8.46;73.84;98541.66;4933471;29;20024;-73
2022/04/07 03:14:42;;;;;;;5.10;2.28;;;;;;;8.45;74.28;98539.97;4936158;29;20122;-73
2022/04/07 03:17:08;;;;;;;6.97;2.75;;;;;;;8.42;74.47;98540.91;4933523;29;20411;-73
2022/04/07 03:19:34;;;;;;;4.40;2.75;;;;;;;8.53;75.79;98540.59;4936043;29;20046;-74
2022/04/07 03:22:00;;;;;;;9.10;3.40;;;;;;;8.62;75.18;98542.97;4930829;29;20047;-73
2022/04/07 03:24:25;;;;;;;5.13;2.42;;;;;;;8.67;74.78;98535.78;4936297;29;20047;-73
2022/04/07 03:26:52;;;;;;;7.85;2.95;;;;;;;8.69;74.64;98533.09;4935705;29;20099;-74
2022/04/07 03:29:19;;;;;;;6.35;3.53;;;;;;;8.71;74.18;98532.16;4936199;29;20046;-73
2022/04/07 03:31:45;;;;;;;8.40;4.50;;;;;;;8.69;74.68;98533.94;4932319;29;20047;-73
2022/04/07 03:34:10;;;;;;;9.07;5.07;;;;;;;8.67;74.07;98533.16;4918140;29;20035;-73
2022/04/07 03:36:36;;;;;;;8.82;3.90;;;;;;;8.68;74.24;98524.34;4935996;29;20028;-73
2022/04/07 03:39:01;;;;;;;6.50;3.30;;;;;;;8.70;74.33;98519.06;4935764;29;20039;-73
2022/04/07 03:41:28;;;;;;;5.60;2.42;;;;;;;8.75;74.77;98525.91;4933873;29;20043;-73
2022/04/07 03:43:54;;;;;;;6.03;2.45;;;;;;;8.80;74.51;98522.25;4936317;29;20114;-73
2022/04/07 03:46:21;;;;;;;5.10;1.80;;;;;;;8.89;74.31;98519.34;4936024;29;20039;-73
2022/04/07 03:48:48;;;;;;;4.93;2.33;;;;;;;8.94;74.62;98515.66;4935303;29;20043;-74
2022/04/07 03:51:13;;;;;;;5.90;2.17;;;;;;;8.98;73.90;98512.00;4928790;29;20479;-73
2022/04/07 03:53:38;;;;;;;5.70;2.38;;;;;;;8.97;74.46;98507.66;4934982;29;20046;-73
2022/04/07 03:56:04;;;;;;;4.70;1.88;;;;;;;9.03;74.51;98505.75;4935754;29;20039;-73
2022/04/07 03:58:30;;;;;;;3.50;1.80;;;;;;;9.03;74.38;98501.34;4935574;29;20126;-74
2022/04/07 04:00:56;;;;;;;5.57;2.22;;;;;;;9.04;73.92;98503.06;4935694;29;20043;-73
2022/04/07 04:03:21;;;;;;;6.35;2.40;;;;;;;9.01;74.45;98500.50;4935888;29;20044;-73
2022/04/07 04:05:47;;;;;;;5.53;2.10;;;;;;;9.00;73.93;98493.53;4935388;29;20039;-73
2022/04/07 04:08:12;;;;;;;5.93;2.53;;;;;;;8.95;74.68;98503.34;4935776;29;20499;-73
2022/04/07 04:10:37;;;;;;;5.15;2.28;;;;;;;8.92;74.76;98506.09;4934286;29;20043;-73
2022/04/07 04:13:03;;;;;;;4.03;2.10;;;;;;;8.91;74.52;98499.13;4935330;29;20102;-73
2022/04/07 04:15:28;;;;;;;5.93;2.78;;;;;;;8.91;74.27;98493.84;4935030;29;20036;-74
2022/04/07 04:17:54;;;;;;;5.65;2.67;;;;;;;8.89;74.54;98487.78;4935520;29;20036;-73
2022/04/07 04:20:19;;;;;;;4.10;2.10;;;;;;;8.87;75.15;98477.28;4935710;29;20051;-74
2022/04/07 04:22:45;;;;;;;5.32;2.22;;;;;;;8.90;75.54;98481.59;4934741;29;20050;-73
2022/04/07 04:25:10;;;;;;;5.60;2.47;;;;;;;8.91;75.17;98478.94;4932812;29;20050;-74
2022/04/07 04:27:35;;;;;;;4.72;2.10;;;;;;;9.02;75.02;98467.19;4933772;29;20123;-73
2022/04/07 04:30:01;;;;;;;5.53;2.50;;;;;;;9.16;74.97;98468.44;4932606;29;20043;-73
2022/04/07 04:32:27;;;;;;;5.57;2.65;;;;;;;9.29;74.30;98473.31;4930732;29;20047;-74
2022/04/07 04:34:52;;;;;;;4.55;2.35;;;;;;;9.40;74.45;98472.00;4935208;29;20043;-73
2022/04/07 04:37:17;;;;;;;7.90;2.50;;;;;;;9.49;73.98;98465.59;4934163;29;20039;-73
2022/04/07 04:39:43;;;;;;;4.63;2.10;;;;;;;9.59;74.05;98459.09;4933800;29;20054;-74
2022/04/07 04:42:08;;;;;;;6.15;2.80;;;;;;;9.64;73.72;98457.16;4934719;29;20044;-74
2022/04/07 04:44:34;;;;;;;5.65;2.33;;;;;;;9.65;73.32;98450.09;4935186;29;20051;-74
2022/04/07 04:46:59;;;;;;;4.93;2.60;;;;;;;9.66;73.62;98446.53;4930767;29;20027;-74
2022/04/07 04:49:24;;;;;;;14.60;5.65;;;;;;;9.68;74.21;98446.50;4933124;29;20043;-74
2022/04/07 04:51:50;;;;;;;13.88;5.15;;;;;;;9.68;74.43;98434.19;4934650;29;20047;-74
2022/04/07 04:54:15;;;;;;;26.98;8.50;;;;;;;9.74;74.67;98427.84;4934928;29;20087;-73
2022/04/07 04:56:41;;;;;;;11.27;5.03;;;;;;;9.74;74.50;98430.47;4933528;29;20039;-74
2022/04/07 04:59:07;;;;;;;10.68;4.78;;;;;;;9.78;74.21;98432.94;4929092;29;20082;-74
2022/04/07 05:01:32;;;;;;;11.73;6.50;;;;;;;9.81;73.88;98426.69;4931950;29;20039;-74
2022/04/07 05:03:58;;;;;;;6.28;2.17;;;;;;;9.81;73.32;98429.34;4931719;29;20036;-73
2022/04/07 05:06:23;;;;;;;4.78;2.30;;;;;;;9.85;72.89;98436.19;4931326;29;20036;-74
2022/04/07 05:08:48;;;;;;;6.18;2.60;;;;;;;9.84;73.23;98427.44;4933230;29;20091;-74
2022/04/07 05:11:14;;;;;;;4.85;2.38;;;;;;;9.89;72.63;98422.00;4933687;29;20075;-73
2022/04/07 05:13:39;;;;;;;6.32;2.13;;;;;;;9.92;72.67;98429.78;4933373;29;20060;-73
2022/04/07 05:16:07;;;;;;;3.50;1.98;;;;;;;9.99;72.98;98418.13;4933869;29;20039;-74
2022/04/07 05:18:33;;;;;;;6.00;2.55;;;;;;;10.04;72.28;98418.81;4933737;29;20447;-74
2022/04/07 05:20:58;;;;;;;3.97;1.95;;;;;;;10.11;71.91;98424.69;4933522;29;20115;-73
2022/04/07 05:23:23;;;;;;;4.38;2.03;;;;;;;10.17;72.07;98421.84;4934858;29;20524;-73
2022/04/07 05:25:49;;;;;;;7.72;2.40;;;;;;;10.24;72.22;98422.44;4933762;29;20051;-74
2022/04/07 05:28:14;;;;;;;5.97;2.08;;;;;;;10.33;71.24;98416.00;4934519;29;20044;-73
2022/04/07 05:30:39;;;;;;;4.70;2.25;;;;;;;10.39;71.50;98413.97;4934293;29;20043;-73
2022/04/07 05:33:05;;;;;;;8.00;4.53;;;;;;;10.57;71.97;98411.53;4934341;29;20050;-74
2022/04/07 05:35:30;;;;;;;6.70;3.67;;;;;;;10.73;71.93;98410.00;4934469;29;20086;-73
2022/04/07 05:38:00;;;;;;;6.75;2.20;;;;;;;10.82;70.05;98420.19;4934434;29;20054;-74
2022/04/07 05:40:26;;;;;;;4.10;2.13;;;;;;;10.86;69.34;98421.75;4933275;29;20123;-74
2022/04/07 05:42:51;;;;;;;4.45;1.60;;;;;;;10.93;68.87;98402.13;4933967;29;20058;-74
2022/04/07 05:45:17;;;;;;;4.45;1.70;;;;;;;11.02;68.90;98406.16;4934233;29;20486;-73
2022/04/07 05:47:42;;;;;;;5.53;1.88;;;;;;;11.01;68.65;98403.59;4934343;29;20062;-73
2022/04/07 05:50:08;;;;;;;5.90;2.00;;;;;;;11.12;68.04;98398.72;4934148;29;20119;-74
2022/04/07 05:52:34;;;;;;;4.55;2.30;;;;;;;11.11;68.01;98394.38;4933958;29;20047;-73
2022/04/07 05:54:59;;;;;;;2.95;1.65;;;;;;;11.17;67.63;98386.19;4932148;29;20031;-74
2022/04/07 05:57:30;;;;;;;4.20;1.60;;;;;;;11.23;66.83;98385.06;4933953;29;20117;-74
2022/04/07 06:00:04;;;;;;;4.00;1.80;;;;;;;11.27;66.99;98381.38;4940345;29;20054;-74
2022/04/07 06:02:30;;;;;;;3.05;1.55;;;;;;;11.30;66.29;98379.44;4934120;29;20499;-73
2022/04/07 06:04:55;;;;;;;3.30;1.40;;;;;;;11.37;65.29;98374.72;4933377;29;20043;-73
2022/04/07 06:07:20;;;;;;;2.78;1.33;;;;;;;11.53;65.58;98372.31;4933904;29;20046;-74
2022/04/07 06:09:46;;;;;;;2.90;1.40;;;;;;;11.62;64.58;98366.59;4930584;29;20039;-73
2022/04/07 06:12:11;;;;;;;3.45;1.60;;;;;;;11.65;64.00;98368.25;4933440;29;20044;-73
2022/04/07 06:14:36;;;;;;;9.95;1.70;;;;;;;11.77;64.17;98367.69;4940892;29;20039;-74
2022/04/07 06:17:02;;;;;;;3.50;1.50;;;;;;;11.83;63.47;98356.84;4933639;29;20050;-74
2022/04/07 06:19:27;;;;;;;3.20;1.27;;;;;;;11.97;62.85;98354.47;4933913;29;20042;-74
2022/04/07 06:21:52;;;;;;;3.20;1.52;;;;;;;12.15;63.11;98350.06;4933294;29;20070;-74
2022/04/07 06:24:18;;;;;;;6.35;1.35;;;;;;;12.11;61.82;98337.94;4932915;29;20055;-74
2022/04/07 06:26:43;;;;;;;2.97;1.38;;;;;;;12.34;61.73;98351.84;4930888;29;20043;-74
2022/04/07 06:29:08;;;;;;;3.13;1.33;;;;;;;12.40;60.74;98341.84;4933664;29;20048;-74
2022/04/07 06:31:34;;;;;;;4.97;1.40;;;;;;;12.50;60.55;98339.59;4933256;29;20044;-74
2022/04/07 06:33:59;;;;;;;3.47;1.50;;;;;;;12.53;60.48;98347.38;4933348;29;20095;-74
2022/04/07 06:36:24;;;;;;;4.03;1.50;;;;;;;12.64;60.20;98342.41;4932678;29;20051;-74
2022/04/07 06:38:50;;;;;;;2.75;1.20;;;;;;;12.63;60.49;98334.56;4936981;29;20202;-73
2022/04/07 06:41:15;;;;;;;6.07;1.50;;;;;;;12.66;60.94;98329.97;4937248;29;20063;-74
2022/04/07 06:43:40;;;;;;;3.05;1.30;;;;;;;12.53;60.36;98323.56;4937440;29;20039;-74
2022/04/07 06:46:06;;;;;;;4.03;1.20;;;;;;;12.54;60.81;98329.72;4937266;29;20035;-74
2022/04/07 06:48:32;;;;;;;2.85;1.30;;;;;;;12.68;61.30;98322.81;4937223;29;20131;-73
2022/04/07 06:50:57;;;;;;;2.85;1.17;;;;;;;12.70;60.57;98331.50;4937077;29;20131;-73
2022/04/07 06:53:22;;;;;;;4.55;1.50;;;;;;;12.71;60.80;98324.44;4936858;29;20076;-73
2022/04/07 06:55:48;;;;;;;2.53;1.23;;;;;;;12.75;60.84;98318.06;4936542;29;20067;-74
2022/04/07 06:58:13;;;;;;;4.97;1.70;;;;;;;12.64;60.70;98308.00;4937000;29;20123;-74
2022/04/07 07:00:45;;;;;;;3.75;1.30;;;;;;;12.78;60.89;98317.91;4937097;29;20051;-74
2022/04/07 07:03:14;;;;;;;3.53;1.20;;;;;;;12.82;60.76;98308.03;4936948;29;20178;-74
2022/04/07 07:05:40;;;;;;;3.20;1.20;;;;;;;12.82;60.46;98305.38;4934324;29;20039;-74
2022/04/07 07:08:16;;;;;;;2.92;1.30;;;;;;;12.93;60.45;98295.09;4936028;29;20143;-74
2022/04/07 07:10:42;;;;;;;2.25;1.05;;;;;;;12.86;59.43;98296.34;4929825;29;20117;-74
2022/04/07 07:13:08;;;;;;;3.10;1.45;;;;;;;12.86;59.54;98291.03;4933025;29;20498;-74
2022/04/07 07:15:34;;;;;;;2.10;0.98;;;;;;;12.91;59.64;98291.66;4944088;29;20046;-74
2022/04/07 07:17:59;;;;;;;2.88;1.10;;;;;;;12.91;59.68;98273.13;4936715;29;20039;-74
2022/04/07 07:20:24;;;;;;;3.15;1.20;;;;;;;12.95;59.82;98269.41;4936718;29;20050;-74
2022/04/07 07:22:50;;;;;;;3.65;1.27;;;;;;;12.85;59.71;98263.72;4936260;29;20122;-74
2022/04/07 07:25:15;;;;;;;2.90;0.88;;;;;;;12.91;58.81;98271.34;4935315;29;20078;-74
2022/04/07 07:27:45;;;;;;;2.15;0.90;;;;;;;12.97;58.85;98264.88;4933926;29;20051;-74
2022/04/07 07:30:12;;;;;;;2.35;1.10;;;;;;;13.10;58.34;98257.16;4936053;29;20123;-74
2022/04/07 07:32:39;;;;;;;5.85;1.00;;;;;;;13.20;58.57;98258.34;4937161;29;20039;-74
2022/04/07 07:35:06;;;;;;;2.08;0.75;;;;;;;13.27;57.67;98254.50;4931315;29;20050;-74
2022/04/07 07:37:31;;;;;;;1.30;0.70;;;;;;;13.34;58.50;98261.19;4932608;29;21022;-74
2022/04/07 07:39:57;;;;;;;2.95;1.05;;;;;;;13.37;57.35;98257.50;4932559;29;20042;-73
2022/04/07 07:42:23;;;;;;;1.90;0.82;;;;;;;13.47;57.64;98247.28;4931229;29;20055;-74
2022/04/07 07:44:49;;;;;;;2.33;0.70;;;;;;;13.47;57.18;98236.69;4934584;29;20035;-74
2022/04/07 07:47:14;;;;;;;3.00;1.17;;;;;;;13.28;58.37;98228.84;4934735;29;20552;-74
2022/04/07 07:49:40;;;;;;;1.88;0.90;;;;;;;13.37;57.54;98239.81;4935491;29;20495;-73
2022/04/07 07:52:05;;;;;;;4.90;1.05;;;;;;;13.54;57.56;98245.97;4935941;29;20047;-73
2022/04/07 07:54:31;;;;;;;2.25;0.63;;;;;;;13.66;56.92;98245.31;4936284;29;20083;-74
2022/04/07 07:56:56;;;;;;;2.45;1.08;;;;;;;13.79;56.43;98237.53;4936149;29;20043;-74
2022/04/07 07:59:21;;;;;;;1.95;0.70;;;;;;;13.79;55.67;98221.63;4936147;29;20079;-74
2022/04/07 08:01:48;;;;;;;5.40;1.00;;;;;;;13.85;56.24;98245.16;4935702;29;20039;-74
2022/04/07 08:04:14;;;;;;;2.50;0.95;;;;;;;13.99;56.31;98224.03;4935956;29;20062;-74
2022/04/07 08:06:39;;;;;;;2.53;1.20;;;;;;;13.86;56.28;98220.38;4943422;29;20040;-74
2022/04/07 08:09:05;;;;;;;2.67;0.75;;;;;;;13.75;56.12;98233.34;4936026;29;20047;-74
2022/04/07 08:11:31;;;;;;;1.90;0.90;;;;;;;13.95;56.63;98219.81;4935751;29;20075;-73
2022/04/07 08:13:56;;;;;;;2.05;0.80;;;;;;;13.95;56.63;98198.63;4935570;29;20118;-73
2022/04/07 08:16:21;;;;;;;2.60;0.93;;;;;;;14.14;56.18;98197.56;4935789;29;20039;-74
2022/04/07 08:18:47;;;;;;;2.47;0.90;;;;;;;13.91;56.09;98191.78;4935204;29;20110;-74
2022/04/07 08:21:12;;;;;;;3.78;0.90;;;;;;;13.93;56.52;98189.88;4932027;29;20490;-74
2022/04/07 08:23:37;;;;;;;3.58;1.52;;;;;;;14.06;56.27;98187.38;4934651;29;20039;-74
2022/04/07 08:26:02;;;;;;;10.48;2.53;;;;;;;14.06;56.20;98181.22;4934778;29;20094;-74
2022/04/07 08:28:28;;;;;;;2.45;0.75;;;;;;;13.91;56.66;98190.91;4935491;29;20103;-74
2022/04/07 08:30:53;;;;;;;2.05;0.80;;;;;;;13.96;56.10;98183.56;4935199;29;20055;-74
2022/04/07 08:33:18;;;;;;;3.30;0.70;;;;;;;14.09;55.79;98171.28;4934072;29;20044;-74
2022/04/07 08:35:44;;;;;;;3.88;1.30;;;;;;;14.23;54.93;98167.84;4990391;23;20114;-74
2022/04/07 08:38:14;;;;;;;1.42;0.68;;;;;;;14.35;54.38;98169.75;4931459;29;20063;-74
2022/04/07 08:40:41;;;;;;;1.45;0.50;;;;;;;14.34;55.01;98161.91;4934918;29;20046;-74
2022/04/07 08:43:08;;;;;;;2.75;0.98;;;;;;;14.30;55.31;98155.91;4934868;29;20020;-74
2022/04/07 08:45:39;;;;;;;3.20;0.40;;;;;;;14.09;55.57;98175.75;4934917;29;20052;-74
2022/04/07 08:48:09;;;;;;;2.10;0.60;;;;;;;14.16;55.60;98148.78;4934436;29;20071;-74
2022/04/07 08:50:34;;;;;;;2.75;0.40;;;;;;;14.11;54.36;98158.81;4930012;29;20142;-74
2022/04/07 08:53:01;;;;;;;0.77;0.38;;;;;;;14.22;54.56;98150.22;4934955;29;20126;-74
2022/04/07 08:55:26;;;;;;;1.10;0.40;;;;;;;14.39;54.09;98147.41;4933143;29;20060;-74
2022/04/07 08:57:51;;;;;;;0.65;0.28;;;;;;;14.54;53.74;98136.84;4934614;29;20496;-74
2022/04/07 09:00:17;;;;;;;1.85;0.65;;;;;;;14.80;53.66;98125.53;4934207;29;20495;-74
2022/04/07 09:02:43;;;;;;;2.85;0.50;;;;;;;15.14;53.43;98120.72;4929059;29;20036;-74
2022/04/07 09:05:11;;;;;;;1.50;0.60;;;;;;;15.37;51.14;98118.41;4933646;29;20054;-74
2022/04/07 09:07:36;;;;;;;1.60;0.70;;;;;;;15.36;50.71;98108.75;4932145;29;20028;-74
2022/04/07 09:10:03;;;;;;;1.90;0.70;;;;;;;15.44;51.18;98101.13;4933474;29;20545;-75
2022/04/07 09:12:29;;;;;;;2.70;0.70;;;;;;;15.43;50.56;98104.72;4933008;29;20038;-74
2022/04/07 09:14:59;;;;;;;1.83;0.63;;;;;;;15.42;49.85;98092.41;4933450;29;20043;-74
2022/04/07 09:17:26;;;;;;;2.10;0.55;;;;;;;15.36;50.21;98090.16;4933605;29;20114;-74
2022/04/07 09:19:51;;;;;;;4.05;0.52;;;;;;;15.16;50.26;98086.94;4933927;29;20039;-74
2022/04/07 09:22:16;;;;;;;2.78;0.50;;;;;;;15.16;50.75;98086.94;4930295;29;20550;-74
2022/04/07 09:24:42;;;;;;;1.67;0.50;;;;;;;15.27;49.14;98089.81;4929612;29;20036;-74
2022/04/07 09:27:09;;;;;;;3.47;0.68;;;;;;;15.59;48.63;98094.84;4934295;29;20047;-74
2022/04/07 09:29:39;;;;;;;1.88;0.63;;;;;;;15.92;47.72;98081.13;4934081;29;20047;-74
2022/04/07 09:32:19;;;;;;;2.80;0.50;;;;;;;16.13;45.83;98092.13;4929378;29;20035;-74
2022/04/07 09:34:46;;;;;;;3.28;0.68;;;;;;;15.89;46.10;98075.16;4934213;29;20059;-74
2022/04/07 09:37:11;;;;;;;2.55;0.70;;;;;;;15.76;46.52;98065.34;4934052;29;20027;-74
2022/04/07 09:39:39;;;;;;;1.50;0.40;;;;;;;15.84;46.86;98063.97;4933023;29;20047;-74
2022/04/07 09:42:20;;;;;;;4.35;0.60;;;;;;;15.50;46.86;98056.38;4934064;29;20098;-74
2022/04/07 09:44:51;;;;;;;2.75;0.40;;;;;;;15.62;47.75;98067.19;4931196;29;20130;-74
2022/04/07 09:47:16;;;;;;;2.03;0.50;;;;;;;15.77;47.31;98056.41;4933374;29;20391;-74
2022/04/07 09:49:42;;;;;;;2.63;0.50;;;;;;;15.94;47.36;98047.28;4932563;29;20151;-74
2022/04/07 09:52:10;;;;;;;0.93;0.40;;;;;;;16.35;46.29;98040.13;4932178;29;20042;-74
2022/04/07 09:54:39;;;;;;;1.60;0.43;;;;;;;16.54;46.88;98021.03;4930934;29;20032;-74
2022/04/07 09:57:05;;;;;;;4.93;1.02;;;;;;;16.50;45.90;98027.53;4933417;29;20043;-75
2022/04/07 09:59:30;;;;;;;1.52;0.47;;;;;;;16.30;45.96;98021.78;4933363;29;20082;-74
2022/04/07 10:01:57;;;;;;;1.00;0.32;;;;;;;16.20;45.77;98032.22;4932144;29;20032;-74
2022/04/07 10:04:22;;;;;;;1.85;0.43;;;;;;;16.21;45.42;98011.78;4932413;29;20047;-74
2022/04/07 10:06:48;;;;;;;2.20;0.55;;;;;;;16.18;45.36;98020.81;4929168;29;20091;-74
2022/04/07 10:09:14;;;;;;;6.40;1.00;;;;;;;16.30;45.40;98005.81;4930349;29;20624;-74
2022/04/07 10:11:39;;;;;;;1.85;0.63;;;;;;;16.39;44.71;97993.66;4933492;29;20053;-74
2022/04/07 10:14:05;;;;;;;0.73;0.30;;;;;;;16.50;44.45;97980.44;4933855;29;20031;-74
2022/04/07 10:16:30;;;;;;;2.30;0.30;;;;;;;16.57;44.90;97984.38;4933997;29;20456;-74
2022/04/07 10:19:01;;;;;;;1.58;0.32;;;;;;;16.55;44.19;97988.13;4933795;29;20442;-74
2022/04/07 10:21:37;;;;;;;0.90;0.40;;;;;;;16.68;44.24;97977.44;4932033;29;20533;-74
2022/04/07 10:24:14;;;;;;;6.55;0.80;;;;;;;16.38;44.66;97960.88;4933035;29;20055;-74
2022/04/07 10:26:45;;;;;;;1.48;0.63;;;;;;;16.50;45.17;97939.66;4947983;29;20557;-74
2022/04/07 10:29:21;;;;;;;1.83;0.40;;;;;;;16.42;45.38;97941.06;4933699;29;20050;-74
2022/04/07 10:32:12;;;;;;;2.42;0.30;;;;;;;16.67;45.52;97930.47;4932015;29;20044;-74
2022/04/07 10:34:42;;;;;;;0.80;0.40;;;;;;;16.91;44.73;97926.03;4932305;29;20035;-74
2022/04/07 10:37:08;;;;;;;1.45;0.40;;;;;;;16.92;43.58;97906.41;4930402;29;20474;-74
2022/04/07 10:39:34;;;;;;;1.75;0.40;;;;;;;16.95;44.00;97906.22;4933722;29;20036;-75
2022/04/07 10:42:00;;;;;;;1.73;0.47;;;;;;;16.58;44.33;97892.91;4933626;29;20051;-75
2022/04/07 10:44:26;;;;;;;2.80;0.50;;;;;;;16.36;45.40;97888.25;4932450;29;20036;-74
2022/04/07 10:47:05;;;;;;;1.75;0.43;;;;;;;16.31;45.59;97897.53;4930109;29;20046;-74
2022/04/07 10:49:31;;;;;;;1.85;0.45;;;;;;;16.24;46.29;97893.63;4932071;29;20039;-75
2022/04/07 10:51:58;;;;;;;0.65;0.40;;;;;;;16.32;46.30;97883.25;4931253;29;20529;-75
2022/04/07 10:54:28;;;;;;;1.88;0.40;;;;;;;16.43;46.44;97873.56;4929652;29;20024;-75
2022/04/07 10:56:56;;;;;;;1.67;0.50;;;;;;;16.35;46.28;97870.59;4930243;29;20044;-75
2022/04/07 10:59:28;;;;;;;2.35;0.40;;;;;;;16.25;45.89;97868.72;4929748;29;20541;-75
2022/04/07 11:02:11;;;;;;;5.15;1.05;;;;;;;16.10;46.14;97849.38;4927851;29;20044;-75
2022/04/07 11:04:36;;;;;;;;;;;;;;;16.32;46.67;97838.03;4945260;29;20054;-75
2022/04/07 11:09:50;;;;;;;1.60;0.43;;;;;;;16.79;45.01;97815.94;4930467;29;20071;-75
2022/04/07 11:12:17;;;;;;;1.73;0.43;;;;;;;16.93;44.90;97817.56;4932007;29;20044;-75
2022/04/07 11:14:44;;;;;;;4.35;0.70;;;;;;;16.89;44.59;97826.72;4933650;29;20458;-74
2022/04/07 11:17:15;;;;;;;2.63;0.35;;;;;;;16.38;45.35;97806.50;4933150;29;20094;-74
2022/04/07 11:20:13;;;;;;;1.25;0.30;;;;;;;16.28;45.26;97810.78;4933373;29;20178;-75
2022/04/07 11:22:51;;;;;;;3.45;0.40;;;;;;;16.04;46.14;97810.75;4932241;29;20040;-75
2022/04/07 11:25:24;;;;;;;1.05;0.50;;;;;;;15.94;46.27;97796.41;4931091;29;20586;-75
2022/04/07 11:28:10;;;;;;;1.65;0.50;;;;;;;16.03;46.52;97795.75;4935459;29;20110;-75
2022/04/07 11:30:41;;;;;;;4.15;0.70;;;;;;;16.19;46.77;97777.72;4933592;29;20087;-74
2022/04/07 11:33:18;;;;;;;0.95;0.47;;;;;;;15.96;46.75;97773.22;4936171;29;20043;-75
2022/04/07 11:36:04;;;;;;;1.00;0.40;;;;;;;15.59;47.08;97774.94;4934136;29;20052;-74
2022/04/07 11:38:33;;;;;;;1.15;0.30;;;;;;;15.66;47.44;97771.75;4934881;29;20040;-75